Date,TemperatureHighF,TemperatureAvgF,TemperatureLowF,DewpointHighF,DewpointAvgF,DewpointLowF,HumidityHigh,HumidityAvg,HumidityLow,PressureMaxIn,PressureMinIn,WindSpeedMaxMPH,WindSpeedAvgMPH,GustSpeedMaxMPH,PrecipitationSumIn
2013-11-1,57.4,51.9,43.9,48.8,43.3,36.8,86,73,61,30.30,30.15,10,2,10,0.00
2013-11-2,61.5,57.9,52.5,54.9,52.7,48.0,95,83,70,30.00,29.85,13,5,13,0.01
2013-11-3,62.8,54.0,47.7,58.5,50.5,42.5,96,88,77,29.88,29.62,20,7,20,0.22
2013-11-4,52.0,48.1,42.4,49.1,44.4,40.1,96,87,73,29.94,29.59,8,2,8,0.22
2013-11-5,52.7,48.0,42.4,52.0,47.4,41.9,98,98,80,29.50,29.44,13,5,13,0.52
2013-11-6,54.3,45.2,35.8,43.0,39.2,35.3,98,81,52,29.85,29.47,17,4,17,0.52
2013-11-7,56.8,49.4,44.8,49.2,44.7,39.2,98,84,65,30.06,29.85,12,3,12,0.01
2013-11-8,57.9,49.2,40.5,52.3,47.3,39.9,98,93,79,30.06,29.97,8,2,8,0.00
2013-11-9,57.9,52.4,48.2,52.1,49.7,47.7,98,91,73,29.97,29.85,15,2,15,0.14
2013-11-10,53.4,47.7,44.1,47.9,45.0,42.0,98,91,66,29.85,29.74,8,3,8,0.02
2013-11-11,50.9,48.9,46.9,46.8,43.0,37.8,97,81,64,30.27,29.77,15,6,15,0.08
2013-11-12,55.2,51.2,45.5,43.4,41.8,36.7,86,70,61,30.33,30.27,8,2,8,0.00
2013-11-13,49.1,46.0,43.7,48.0,43.2,40.4,96,90,87,30.30,30.21,8,5,8,0.00
2013-11-14,46.8,45.2,44.4,39.1,36.6,34.7,76,72,68,30.18,30.12,6,2,6,0.00
2013-11-15,48.0,44.9,43.9,40.4,36.5,33.6,84,72,67,30.39,30.15,10,3,10,0.00
2013-11-16,54.9,46.5,37.6,44.9,40.8,36.0,94,81,65,30.36,30.33,6,1,6,0.00
2013-11-17,50.0,46.0,42.4,47.2,42.9,41.1,97,89,80,30.30,30.21,5,1,5,0.00
2013-11-18,42.8,40.8,39.0,42.0,40.2,38.5,98,98,96,30.24,30.06,9,3,9,0.00
2013-11-19,43.9,41.9,40.3,42.0,40.7,39.5,98,95,92,30.06,29.74,13,6,13,0.00
2013-11-20,49.8,47.1,41.0,47.7,45.4,40.2,98,94,87,29.80,29.56,12,5,12,0.13
2013-11-21,46.2,41.9,36.7,45.7,41.4,36.2,98,98,98,29.71,29.56,10,3,10,0.12
2013-11-22,49.6,48.0,46.4,49.1,47.3,45.9,98,98,96,29.77,29.68,4,2,4,0.00
2013-11-23,52.7,49.8,46.2,47.5,45.4,43.3,91,85,80,29.77,29.71,17,6,17,0.00
2013-11-24,47.3,45.0,41.4,44.8,43.9,40.8,98,96,87,29.74,29.68,10,3,10,0.55
2013-11-25,41.2,35.9,33.1,40.7,30.0,22.8,98,80,60,30.06,29.68,15,8,15,0.72
2013-11-26,37.6,33.8,31.1,27.4,25.4,20.8,81,72,57,30.21,30.03,10,5,10,0.00
2013-11-27,38.7,30.9,23.9,22.4,19.9,18.6,81,64,46,30.42,30.21,10,3,10,0.00
2013-11-28,35.1,26.9,21.2,30.7,21.9,17.4,92,82,54,30.42,30.21,13,3,13,0.00
2013-11-29,42.8,37.7,34.3,32.0,29.9,28.5,82,74,61,30.21,30.03,15,4,15,0.00
2013-11-30,38.8,33.7,27.1,30.2,27.7,24.3,89,79,70,30.27,30.03,6,1,6,0.00